West York, IL (62478)

11:09 PM CST on January 26, 2015 (GMT -0600)
Northwest | Change Station
CLOSE
Current Station
Personal Weather Station
Location: Robinson, IL
Elevation: 545 ft
Nearby Weather Stations

Elev 545 ft 39.02 °N, 87.75 °W | Updated 1 second ago

Overcast
Overcast
28.7 °F
Feels Like 29 °F
N
0.0
Wind Variable Wind from SSW
Gusts 2.0 mph

Today
High -- | Low -- °F
--% Chance of Precip.
Yesterday
High -- | Low -- °F
Precip. -- in
7:02 AM 5:04 PM
Waxing Crescent, 50% visible
Pressure 29.94 in
Visibility 4.0 miles
Clouds Mostly Cloudy 700 ft
Overcast 1000 ft
Windchill 29 °F
Dew Point 27 °F
Humidity 94%
Rainfall 0.00 in
Snow Depth Not available.
UV 0 out of 12
Pollen .10 out of 12
Air Quality Not available.
Flu Activity Not available.
METAR KRSV 270455Z AUTO 13004KT 4SM BR BKN007 OVC010 M02/M02 A2994 RMK AO2 T10181021

More Conditions Fewer Conditions

Pressure 29.94 in
Visibility 4.0 miles
Clouds Mostly Cloudy 700 ft
Overcast 1000 ft
Windchill 29 °F
Dew Point 27 °F
Humidity 94%
Rainfall 0.00 in
Snow Depth Not available.
UV 0 out of 12
Pollen .10 out of 12
Air Quality Not available.
Flu Activity Not available.
METAR KRSV 270455Z AUTO 13004KT 4SM BR BKN007 OVC010 M02/M02 A2994 RMK AO2 T10181021

More Conditions Fewer Conditions

10-Day Weather Forecast

Almanac

Astronomy

Jan. 26, 2015 Rise Set
Actual Time
Civil Twilight
Nautical Twilight
Astronomical Twilight
Moon
Length of Visible Light
Length of Day
Tomorrow will be .
, % of the Moon is Illuminated

Today's Extremes

State Highs State Lows

Community

WunderPhotos

Upload Photos

1,790,531 photos uploaded!

WunderBlogs® & News

Nearby

Air Quality

  Air Quality AQ Index Pollutant
Not available.

Snow Depth

Station Depth Elevation

Earthquake Activity

City Distance Mag. Time & Date
Minimum magnitude displayed is 2.5.

Coastal Water Temperatures

Place Temperature

Nearby Weather Stations